createdAt,value
2019-02-21T00:01:22.195Z,190.57
2019-02-21T00:03:48.051Z,179.77
2019-02-21T00:06:13.981Z,187.17
2019-02-21T00:08:40.206Z,176.67
2019-02-21T00:11:06.132Z,185.97
2019-02-21T00:13:32.109Z,184.07
2019-02-21T00:15:57.956Z,190.33
2019-02-21T00:18:23.792Z,173.97
2019-02-21T00:20:49.636Z,185.20
2019-02-21T00:23:15.490Z,174.17
2019-02-21T00:25:41.455Z,171.30
2019-02-21T00:28:07.402Z,178.27
2019-02-21T00:30:35.501Z,179.40
2019-02-21T00:33:01.110Z,164.37
2019-02-21T00:35:27.006Z,180.97
2019-02-21T00:37:53.013Z,172.67
2019-02-21T00:40:18.940Z,178.27
2019-02-21T00:42:44.811Z,170.93
2019-02-21T00:45:10.949Z,190.97
2019-02-21T00:47:36.786Z,181.33
2019-02-21T00:50:03.536Z,192.60
2019-02-21T00:52:31.412Z,191.87
2019-02-21T00:54:57.243Z,179.07
2019-02-21T00:57:23.068Z,189.97
2019-02-21T00:59:50.871Z,186.23
2019-02-21T01:02:17.003Z,182.20
2019-02-21T01:04:42.935Z,181.60
2019-02-21T01:07:08.938Z,181.73
2019-02-21T01:09:34.796Z,185.20
2019-02-21T01:12:00.647Z,174.53
2019-02-21T01:14:26.525Z,172.50
2019-02-21T01:16:52.353Z,189.93
2019-02-21T01:19:18.168Z,171.73
2019-02-21T01:21:44.167Z,184.03
2019-02-21T01:24:10.118Z,182.27
2019-02-21T01:26:35.967Z,189.37
2019-02-21T01:29:01.839Z,185.77
2019-02-21T01:31:27.780Z,190.93
2019-02-21T01:33:53.760Z,181.07
2019-02-21T01:36:19.810Z,184.90
2019-02-21T01:38:45.667Z,187.70
2019-02-21T01:41:11.598Z,191.33
2019-02-21T01:43:37.561Z,187.23
2019-02-21T01:46:03.526Z,178.47
2019-02-21T01:48:29.710Z,174.30
2019-02-21T01:50:55.709Z,175.33
2019-02-21T01:53:21.706Z,167.60
2019-02-21T01:55:47.651Z,175.20
2019-02-21T01:58:13.486Z,173.07
2019-02-21T02:00:39.492Z,165.37
2019-02-21T02:03:05.617Z,171.20
2019-02-21T02:05:31.548Z,177.37
2019-02-21T02:07:57.634Z,151.53
2019-02-21T02:10:23.721Z,166.17
2019-02-21T02:12:49.645Z,165.00
2019-02-21T02:15:15.713Z,159.43
2019-02-21T02:17:41.573Z,160.00
2019-02-21T02:20:07.723Z,166.13
2019-02-21T02:22:33.672Z,160.20
2019-02-21T02:24:59.512Z,159.80
2019-02-21T02:27:25.443Z,170.77
2019-02-21T02:29:51.281Z,169.93
2019-02-21T02:32:17.241Z,176.70
2019-02-21T02:34:43.326Z,183.93
2019-02-21T02:37:09.172Z,165.27
2019-02-21T02:39:35.005Z,161.00
2019-02-21T02:42:00.929Z,161.60
2019-02-21T02:44:26.789Z,165.77
2019-02-21T02:46:52.672Z,170.47
2019-02-21T02:49:18.519Z,161.67
2019-02-21T02:51:44.334Z,173.07
2019-02-21T02:54:10.354Z,163.13
2019-02-21T02:56:36.295Z,160.07
2019-02-21T02:59:02.241Z,153.67
2019-02-21T03:01:34.883Z,153.47
2019-02-21T03:03:56.414Z,155.83
2019-02-21T03:06:22.277Z,157.77
2019-02-21T03:08:48.146Z,159.37
2019-02-21T03:11:14.091Z,158.53
2019-02-21T03:13:40.032Z,163.90
2019-02-21T03:16:06.080Z,168.47
2019-02-21T03:18:31.971Z,171.47
2019-02-21T03:20:57.935Z,186.80
2019-02-21T03:23:23.826Z,183.80
2019-02-21T03:25:49.651Z,172.40
2019-02-21T03:28:15.590Z,168.40
2019-02-21T03:30:41.559Z,159.70
2019-02-21T03:33:07.492Z,158.50
2019-02-21T03:35:33.349Z,171.03
2019-02-21T03:37:59.240Z,162.90
2019-02-21T03:40:25.169Z,167.50
2019-02-21T03:42:51.000Z,157.13
2019-02-21T03:45:17.184Z,157.13
2019-02-21T03:47:43.137Z,161.43
2019-02-21T03:50:10.076Z,164.40
2019-02-21T03:52:36.071Z,164.53
2019-02-21T03:55:02.539Z,177.07
2019-02-21T03:57:28.382Z,172.90
2019-02-21T03:59:54.474Z,167.07
2019-02-21T04:02:20.468Z,171.43
2019-02-21T04:04:50.293Z,169.20
2019-02-21T04:07:16.297Z,159.23
2019-02-21T04:09:42.338Z,159.10
2019-02-21T04:12:08.221Z,155.73
2019-02-21T04:14:34.187Z,164.60
2019-02-21T04:17:00.043Z,149.73
2019-02-21T04:19:25.890Z,167.50
2019-02-21T04:21:51.948Z,159.97
2019-02-21T04:24:18.017Z,157.23
2019-02-21T04:26:43.963Z,150.57
2019-02-21T04:29:09.833Z,165.47
2019-02-21T04:31:35.874Z,162.27
2019-02-21T04:34:01.768Z,148.57
2019-02-21T04:36:27.634Z,153.90
2019-02-21T04:38:53.498Z,159.93
2019-02-21T04:41:19.574Z,156.40
2019-02-21T04:43:45.430Z,171.50
2019-02-21T04:46:11.235Z,164.20
2019-02-21T04:48:37.215Z,162.97
2019-02-21T04:51:03.156Z,149.70
2019-02-21T04:53:29.051Z,150.73
2019-02-21T04:55:54.896Z,151.20
2019-02-21T04:58:20.754Z,150.17
2019-02-21T05:00:46.732Z,144.43
2019-02-21T05:03:12.565Z,153.90
2019-02-21T05:05:38.476Z,153.57
2019-02-21T05:08:04.417Z,156.63
2019-02-21T05:10:30.290Z,160.17
2019-02-21T05:12:56.172Z,164.90
2019-02-21T05:15:22.043Z,155.90
2019-02-21T05:17:47.978Z,146.37
2019-02-21T05:20:13.823Z,148.03
2019-02-21T05:22:39.687Z,144.17
2019-02-21T05:25:05.868Z,139.77
2019-02-21T05:27:33.257Z,152.40
2019-02-21T05:29:59.208Z,155.63
2019-02-21T05:32:27.037Z,163.30
2019-02-21T05:35:13.135Z,169.43
2019-02-21T05:37:56.216Z,172.03
2019-02-21T05:40:32.992Z,170.10
2019-02-21T05:43:09.850Z,166.17
2019-02-21T05:45:40.601Z,161.43
2019-02-21T05:48:14.285Z,165.73
2019-02-21T05:50:58.726Z,159.43
2019-02-21T05:53:35.299Z,161.47
2019-02-21T05:56:18.172Z,159.57
2019-02-21T05:58:54.931Z,141.30
2019-02-21T06:01:35.096Z,150.30
2019-02-21T06:04:02.963Z,148.77
2019-02-21T06:06:31.040Z,147.37
2019-02-21T06:08:58.828Z,140.97
2019-02-21T06:11:26.572Z,146.30
2019-02-21T06:13:57.605Z,143.90
2019-02-21T06:16:25.350Z,135.63
2019-02-21T06:18:53.133Z,132.20
2019-02-21T06:21:26.760Z,139.03
2019-02-21T06:23:54.589Z,131.23
2019-02-21T06:26:28.337Z,133.00
2019-02-21T06:28:56.212Z,139.87
2019-02-21T06:31:22.105Z,139.90
2019-02-21T06:33:49.497Z,137.67
2019-02-21T06:36:15.571Z,144.87
2019-02-21T06:38:41.500Z,162.23
2019-02-21T06:41:07.371Z,155.07
2019-02-21T06:43:33.270Z,148.33
2019-02-21T06:45:59.117Z,147.83
2019-02-21T06:48:25.184Z,146.40
2019-02-21T06:50:51.092Z,148.40
2019-02-21T06:53:16.956Z,149.77
2019-02-21T06:55:45.510Z,139.83
2019-02-21T06:58:11.520Z,139.73
2019-02-21T07:00:37.454Z,139.60
2019-02-21T07:03:03.353Z,139.43
2019-02-21T07:05:29.510Z,129.93
2019-02-21T07:07:58.877Z,125.73
2019-02-21T07:10:24.855Z,126.73
2019-02-21T07:12:50.916Z,123.83
2019-02-21T07:15:16.931Z,129.20
2019-02-21T07:17:49.409Z,105.53
2019-02-21T07:20:12.920Z,116.17
2019-02-21T07:22:38.521Z,111.20
2019-02-21T07:25:06.850Z,117.03
2019-02-21T07:27:32.662Z,109.47
2019-02-21T07:29:58.593Z,105.43
2019-02-21T07:32:24.488Z,104.10
2019-02-21T07:34:50.305Z,103.43
2019-02-21T07:37:19.013Z,107.00
2019-02-21T07:39:44.126Z,97.47
2019-02-21T07:42:10.058Z,111.00
2019-02-21T07:44:35.896Z,100.90
2019-02-21T07:47:01.769Z,103.93
2019-02-21T07:49:27.713Z,99.40
2019-02-21T07:51:53.625Z,103.90
2019-02-21T07:54:19.447Z,110.80
2019-02-21T07:56:45.493Z,102.93
2019-02-21T07:59:12.273Z,108.27
2019-02-21T08:01:38.650Z,107.83
2019-02-21T08:04:04.608Z,99.70
2019-02-21T08:06:30.513Z,92.10
2019-02-21T08:08:56.421Z,101.63
2019-02-21T08:11:22.439Z,92.03
2019-02-21T08:13:48.452Z,97.77
2019-02-21T08:16:14.502Z,92.77
2019-02-21T08:18:40.366Z,105.73
2019-02-21T08:21:06.219Z,87.43
2019-02-21T08:23:32.570Z,86.90
2019-02-21T08:25:58.791Z,92.93
2019-02-21T08:28:24.616Z,97.47
2019-02-21T08:30:50.443Z,93.73
2019-02-21T08:33:24.018Z,92.67
2019-02-21T08:35:49.860Z,90.27
2019-02-21T08:38:15.917Z,88.63
2019-02-21T08:40:41.789Z,97.10
2019-02-21T08:43:07.626Z,92.77
2019-02-21T08:45:33.738Z,90.93
2019-02-21T08:47:59.601Z,80.67
2019-02-21T08:50:25.554Z,93.50
2019-02-21T08:52:51.520Z,87.07
2019-02-21T08:55:17.552Z,100.47
2019-02-21T08:57:43.530Z,93.33
2019-02-21T09:00:11.988Z,93.67
2019-02-21T09:02:38.025Z,124.37
2019-02-21T09:05:05.702Z,146.70
2019-02-21T09:07:31.584Z,138.20
2019-02-21T09:09:57.612Z,135.17
2019-02-21T09:12:23.567Z,148.33
2019-02-21T09:14:49.605Z,153.37
2019-02-21T09:17:15.529Z,160.60
2019-02-21T09:19:41.482Z,151.20
2019-02-21T09:22:07.478Z,151.47
2019-02-21T09:24:40.018Z,164.70
2019-02-21T09:27:01.270Z,151.73
2019-02-21T09:29:27.267Z,137.87
2019-02-21T09:31:53.122Z,118.67
2019-02-21T09:34:21.510Z,123.37
2019-02-21T09:36:46.887Z,116.17
2019-02-21T09:39:12.724Z,109.70
2019-02-21T09:41:38.770Z,111.03
2019-02-21T09:44:04.887Z,124.43
2019-02-21T09:46:30.828Z,118.80
2019-02-21T09:48:56.906Z,121.23
2019-02-21T09:51:22.747Z,119.83
2019-02-21T09:53:48.688Z,108.27
2019-02-21T09:56:14.640Z,110.30
2019-02-21T09:58:40.485Z,106.20
2019-02-21T10:01:06.405Z,115.77
2019-02-21T10:03:32.229Z,104.47
2019-02-21T10:05:58.054Z,117.83
2019-02-21T10:08:24.073Z,110.30
2019-02-21T10:10:50.025Z,113.47
2019-02-21T10:13:15.890Z,108.13
2019-02-21T10:15:41.755Z,105.53
2019-02-21T10:18:07.582Z,108.80
2019-02-21T10:20:33.535Z,103.67
2019-02-21T10:22:59.628Z,99.57
2019-02-21T10:25:27.274Z,102.53
2019-02-21T10:27:53.226Z,100.10
2019-02-21T10:30:21.054Z,101.43
2019-02-21T10:32:47.104Z,96.97
2019-02-21T10:35:13.199Z,97.57
2019-02-21T10:37:39.164Z,96.00
2019-02-21T10:40:08.088Z,99.47
2019-02-21T10:42:34.183Z,103.83
2019-02-21T10:45:00.036Z,100.23
2019-02-21T10:47:26.070Z,113.23
2019-02-21T10:49:52.154Z,105.63
2019-02-21T10:52:18.084Z,105.50
2019-02-21T10:54:44.059Z,103.83
2019-02-21T10:57:10.002Z,103.03
2019-02-21T10:59:46.299Z,108.23
2019-02-21T11:02:03.828Z,110.47
2019-02-21T11:04:29.771Z,115.63
2019-02-21T11:06:55.668Z,118.00
2019-02-21T11:09:21.682Z,111.43
2019-02-21T11:11:47.696Z,107.93
2019-02-21T11:14:13.596Z,111.37
2019-02-21T11:16:39.451Z,104.93
2019-02-21T11:19:05.406Z,107.60
2019-02-21T11:21:31.661Z,105.17
2019-02-21T11:23:57.523Z,112.90
2019-02-21T11:26:23.598Z,108.97
2019-02-21T11:28:49.562Z,109.90
2019-02-21T11:31:15.490Z,110.00
2019-02-21T11:33:41.551Z,101.83
2019-02-21T11:36:07.580Z,110.33
2019-02-21T11:38:33.555Z,102.77
2019-02-21T11:40:59.505Z,112.27
2019-02-21T11:43:25.563Z,115.80
2019-02-21T11:45:56.364Z,107.37
2019-02-21T11:48:19.482Z,115.13
2019-02-21T11:50:45.313Z,105.73
2019-02-21T11:53:11.230Z,107.73
2019-02-21T11:55:37.047Z,112.00
2019-02-21T11:58:02.877Z,109.60
2019-02-21T12:00:29.456Z,110.63
2019-02-21T12:02:55.419Z,113.80
2019-02-21T12:05:30.564Z,116.53
2019-02-21T12:07:50.046Z,119.00
2019-02-21T12:10:16.102Z,121.67
2019-02-21T12:12:42.091Z,122.90
2019-02-21T12:15:10.119Z,118.60
2019-02-21T12:17:36.054Z,126.57
2019-02-21T12:20:04.128Z,120.73
2019-02-21T12:22:30.164Z,121.20
2019-02-21T12:24:55.999Z,107.67
2019-02-21T12:27:21.994Z,115.27
2019-02-21T12:29:47.823Z,102.17
2019-02-21T12:32:13.916Z,107.00
2019-02-21T12:34:39.840Z,105.47
2019-02-21T12:37:05.794Z,106.37
2019-02-21T12:39:31.667Z,118.93
2019-02-21T12:41:57.504Z,109.37
2019-02-21T12:44:23.450Z,118.53
2019-02-21T12:46:49.316Z,105.60
2019-02-21T12:49:15.150Z,119.27
2019-02-21T12:51:41.005Z,117.77
2019-02-21T12:54:06.888Z,111.43
2019-02-21T12:56:32.838Z,108.40
2019-02-21T12:58:58.785Z,97.27
2019-02-21T13:01:24.699Z,102.83
2019-02-21T13:03:50.653Z,106.80
2019-02-21T13:06:16.603Z,107.13
2019-02-21T13:08:42.485Z,96.92
2019-02-21T13:11:08.314Z,98.42
2019-02-21T13:13:34.385Z,99.97
2019-02-21T13:16:00.367Z,102.87
2019-02-21T13:18:26.345Z,91.97
2019-02-21T13:20:52.355Z,98.80
2019-02-21T13:23:18.287Z,97.20
2019-02-21T13:25:44.130Z,102.70
2019-02-21T13:28:10.033Z,105.55
2019-02-21T13:30:35.897Z,96.30
2019-02-21T13:33:01.825Z,98.30
2019-02-21T13:35:29.371Z,99.22
2019-02-21T13:37:55.383Z,101.60
2019-02-21T13:40:21.559Z,102.05
2019-02-21T13:42:47.405Z,93.25
2019-02-21T13:45:17.264Z,94.80
2019-02-21T13:47:42.261Z,105.17
2019-02-21T13:50:15.493Z,104.47
2019-02-21T13:52:41.423Z,94.87
2019-02-21T13:55:07.985Z,99.28
2019-02-21T13:57:33.871Z,93.87
2019-02-21T13:59:59.915Z,105.95
2019-02-21T14:02:25.901Z,103.25
2019-02-21T14:04:51.718Z,99.80
2019-02-21T14:07:17.544Z,100.33
2019-02-21T14:09:43.433Z,106.40
2019-02-21T14:12:09.298Z,108.03
2019-02-21T14:14:35.150Z,115.77
2019-02-21T14:17:05.104Z,114.32
2019-02-21T14:19:30.930Z,106.25
2019-02-21T14:21:56.993Z,108.22
2019-02-21T14:24:22.875Z,116.50
2019-02-21T14:26:48.730Z,116.17
2019-02-21T14:29:14.668Z,110.83
2019-02-21T14:31:40.620Z,111.37
2019-02-21T14:34:06.668Z,103.67
2019-02-21T14:36:32.666Z,108.42
2019-02-21T14:38:58.549Z,106.70
2019-02-21T14:41:24.381Z,110.37
2019-02-21T14:43:50.515Z,111.55
2019-02-21T14:46:16.377Z,125.97
2019-02-21T14:48:42.252Z,117.93
2019-02-21T14:51:08.232Z,119.55
2019-02-21T14:53:34.095Z,123.87
2019-02-21T14:56:00.069Z,111.72
2019-02-21T14:58:26.013Z,122.90
2019-02-21T15:00:51.881Z,110.45
2019-02-21T15:03:21.904Z,107.67
2019-02-21T15:05:45.727Z,111.20
2019-02-21T15:08:11.594Z,110.95
2019-02-21T15:10:37.442Z,113.52
2019-02-21T15:13:03.365Z,113.03
2019-02-21T15:15:29.460Z,113.57
2019-02-21T15:18:06.573Z,109.92
2019-02-21T15:20:23.382Z,113.15
2019-02-21T15:22:49.287Z,109.47
2019-02-21T15:25:15.236Z,109.17
2019-02-21T15:27:41.254Z,115.50
2019-02-21T15:30:10.712Z,113.00
2019-02-21T15:32:37.777Z,127.77
2019-02-21T15:35:04.238Z,120.80
2019-02-21T15:37:30.189Z,122.13
2019-02-21T15:39:56.013Z,135.97
2019-02-21T15:42:22.000Z,135.07
2019-02-21T15:44:47.859Z,136.27
2019-02-21T15:47:13.688Z,135.70
2019-02-21T15:49:39.564Z,136.83
2019-02-21T15:52:05.598Z,139.07
2019-02-21T15:54:31.473Z,130.60
2019-02-21T15:56:57.342Z,145.33
2019-02-21T15:59:23.191Z,141.87
2019-02-21T16:01:49.385Z,129.60
2019-02-21T16:04:15.352Z,147.03
2019-02-21T16:06:51.142Z,132.87
2019-02-21T16:09:16.226Z,140.70
2019-02-21T16:11:36.862Z,138.80
2019-02-21T16:14:03.714Z,142.30
2019-02-21T16:16:29.874Z,139.10
2019-02-21T16:18:59.189Z,147.60
2019-02-21T16:21:25.256Z,141.03
2019-02-21T16:23:51.258Z,135.80
2019-02-21T16:26:17.315Z,138.77
2019-02-21T16:28:43.287Z,142.60
2019-02-21T16:31:09.120Z,139.97
2019-02-21T16:33:35.019Z,135.10
2019-02-21T16:36:01.190Z,147.87
2019-02-21T16:38:27.132Z,138.83
2019-02-21T16:40:53.031Z,145.50
2019-02-21T16:43:19.806Z,135.70
2019-02-21T16:45:47.152Z,127.63
2019-02-21T16:48:13.525Z,132.80
2019-02-21T16:50:39.339Z,137.33
2019-02-21T16:53:05.194Z,132.80
2019-02-21T16:55:31.367Z,131.20
2019-02-21T16:57:57.352Z,133.20
2019-02-21T17:00:23.831Z,131.03
2019-02-21T17:02:49.969Z,137.40
2019-02-21T17:05:15.805Z,141.17
2019-02-21T17:07:41.891Z,138.93
2019-02-21T17:10:10.723Z,134.27
2019-02-21T17:12:37.176Z,137.40
2019-02-21T17:15:05.643Z,137.10
2019-02-21T17:17:31.522Z,136.87
2019-02-21T17:19:57.455Z,132.80
2019-02-21T17:22:23.409Z,138.93
2019-02-21T17:24:49.280Z,128.37
2019-02-21T17:27:15.166Z,137.53
2019-02-21T17:29:41.054Z,139.27
2019-02-21T17:32:06.891Z,148.13
2019-02-21T17:34:32.721Z,140.80
2019-02-21T17:36:58.584Z,148.00
2019-02-21T17:39:24.547Z,147.07
2019-02-21T17:41:50.902Z,143.73
2019-02-21T17:44:16.735Z,144.13
2019-02-21T17:46:42.710Z,153.77
2019-02-21T17:49:08.544Z,147.47
2019-02-21T17:51:34.493Z,148.93
2019-02-21T17:54:00.556Z,150.87
2019-02-21T17:56:26.485Z,144.80
2019-02-21T17:58:52.442Z,147.17
2019-02-21T18:01:18.297Z,157.33
2019-02-21T18:03:44.325Z,151.27
2019-02-21T18:06:10.247Z,155.53
2019-02-21T18:08:36.074Z,153.17
2019-02-21T18:11:02.045Z,151.97
2019-02-21T18:13:28.371Z,154.20
2019-02-21T18:15:54.404Z,162.83
2019-02-21T18:18:20.368Z,150.53
2019-02-21T18:20:46.381Z,152.47
2019-02-21T18:23:12.547Z,155.20
2019-02-21T18:25:47.803Z,161.17
2019-02-21T18:28:13.762Z,151.53
2019-02-21T18:30:39.681Z,154.90
2019-02-21T18:33:05.782Z,152.47
2019-02-21T18:35:31.857Z,157.97
2019-02-21T18:37:57.769Z,167.40
2019-02-21T18:40:25.002Z,162.33
2019-02-21T18:42:51.051Z,161.37
2019-02-21T18:45:16.990Z,165.10
2019-02-21T18:47:43.129Z,167.60
2019-02-21T18:50:10.770Z,168.60
2019-02-21T18:52:36.706Z,160.57
2019-02-21T18:55:04.279Z,167.77
2019-02-21T18:57:30.281Z,164.97
2019-02-21T18:59:56.199Z,174.57
2019-02-21T19:02:22.134Z,161.17
2019-02-21T19:04:48.064Z,166.00
2019-02-21T19:07:14.063Z,160.13
2019-02-21T19:09:39.894Z,175.67
2019-02-21T19:12:05.993Z,174.67
2019-02-21T19:14:31.835Z,177.50
2019-02-21T19:16:57.766Z,166.90
2019-02-21T19:19:23.765Z,169.63
2019-02-21T19:21:49.868Z,169.30
2019-02-21T19:24:17.733Z,167.43
2019-02-21T19:26:43.624Z,170.73
2019-02-21T19:29:09.564Z,155.80
2019-02-21T19:31:35.522Z,147.67
2019-02-21T19:34:01.699Z,159.90
2019-02-21T19:36:27.545Z,155.10
2019-02-21T19:38:53.489Z,163.17
2019-02-21T19:41:19.514Z,160.73
2019-02-21T19:43:45.531Z,160.03
2019-02-21T19:46:11.585Z,162.00
2019-02-21T19:48:37.586Z,156.53
2019-02-21T19:51:03.823Z,166.23
2019-02-21T19:53:29.898Z,159.60
2019-02-21T19:55:55.908Z,156.53
2019-02-21T19:58:21.743Z,160.77
2019-02-21T20:00:48.101Z,156.37
2019-02-21T20:03:14.043Z,158.17
2019-02-21T20:05:40.086Z,166.33
2019-02-21T20:08:08.969Z,156.37
2019-02-21T20:10:33.930Z,160.03
2019-02-21T20:13:01.761Z,157.67
2019-02-21T20:15:27.710Z,157.40
2019-02-21T20:17:53.913Z,160.53
2019-02-21T20:20:25.375Z,156.93
2019-02-21T20:22:51.427Z,157.73
2019-02-21T20:25:17.483Z,159.50
2019-02-21T20:27:43.441Z,155.80
2019-02-21T20:30:12.434Z,165.03
2019-02-21T20:32:38.519Z,157.27
2019-02-21T20:35:04.801Z,154.40
2019-02-21T20:37:30.719Z,154.83
2019-02-21T20:39:56.786Z,156.83
2019-02-21T20:42:24.581Z,155.37
2019-02-21T20:44:50.629Z,156.03
2019-02-21T20:47:16.675Z,160.03
2019-02-21T20:49:42.596Z,155.40
2019-02-21T20:52:08.490Z,150.57
2019-02-21T20:54:34.518Z,151.40
2019-02-21T20:57:00.552Z,155.70
2019-02-21T20:59:26.510Z,143.60
2019-02-21T21:01:52.449Z,154.20
2019-02-21T21:04:18.323Z,159.43
2019-02-21T21:06:44.413Z,162.30
2019-02-21T21:09:10.811Z,150.00
2019-02-21T21:11:36.855Z,162.57
2019-02-21T21:14:02.868Z,161.60
2019-02-21T21:16:28.719Z,158.03
2019-02-21T21:18:54.555Z,156.00
2019-02-21T21:21:20.555Z,155.07
2019-02-21T21:23:49.260Z,162.90
2019-02-21T21:26:19.163Z,162.17
2019-02-21T21:28:45.019Z,156.10
2019-02-21T21:31:10.956Z,157.87
2019-02-21T21:33:36.813Z,154.83
2019-02-21T21:36:02.880Z,169.87
2019-02-21T21:38:30.469Z,172.00
2019-02-21T21:40:56.402Z,160.13
2019-02-21T21:43:23.214Z,173.23
2019-02-21T21:45:49.299Z,160.97
2019-02-21T21:48:15.235Z,168.43
2019-02-21T21:50:41.271Z,163.17
2019-02-21T21:53:07.270Z,175.00
2019-02-21T21:55:33.127Z,163.53
2019-02-21T21:57:59.086Z,162.80
2019-02-21T22:00:25.148Z,164.47
2019-02-21T22:02:51.200Z,156.30
2019-02-21T22:05:17.123Z,158.90
2019-02-21T22:07:43.200Z,146.80
2019-02-21T22:10:10.856Z,153.77
2019-02-21T22:12:36.720Z,160.70
2019-02-21T22:15:05.050Z,145.40
2019-02-21T22:17:30.904Z,145.53
2019-02-21T22:19:56.815Z,153.93
2019-02-21T22:22:22.664Z,149.90
2019-02-21T22:24:48.460Z,143.03
2019-02-21T22:27:14.446Z,149.77
2019-02-21T22:29:40.226Z,139.43
2019-02-21T22:32:06.203Z,147.07
2019-02-21T22:34:32.091Z,151.13
2019-02-21T22:36:57.902Z,156.27
2019-02-21T22:39:23.826Z,142.77
2019-02-21T22:41:50.188Z,159.07
2019-02-21T22:44:16.028Z,155.13
2019-02-21T22:46:42.061Z,138.20
2019-02-21T22:49:07.891Z,143.00
2019-02-21T22:51:33.750Z,155.27
2019-02-21T22:53:59.627Z,146.60
2019-02-21T22:56:25.603Z,146.30
2019-02-21T22:58:51.539Z,146.70
2019-02-21T23:01:24.291Z,152.87
2019-02-21T23:03:53.549Z,156.03
2019-02-21T23:06:32.523Z,160.57
2019-02-21T23:08:58.469Z,151.30
2019-02-21T23:11:24.533Z,151.00
2019-02-21T23:13:50.610Z,145.23
2019-02-21T23:16:16.557Z,145.37
2019-02-21T23:18:42.608Z,137.43
2019-02-21T23:21:08.711Z,148.67
2019-02-21T23:23:34.646Z,146.10
2019-02-21T23:26:00.682Z,144.17
2019-02-21T23:28:29.939Z,137.40
2019-02-21T23:30:55.761Z,157.43
2019-02-21T23:33:23.187Z,146.50
2019-02-21T23:35:49.085Z,135.67
2019-02-21T23:38:15.016Z,141.83
2019-02-21T23:40:41.056Z,151.17
2019-02-21T23:43:07.086Z,150.30
2019-02-21T23:45:33.124Z,151.97
2019-02-21T23:47:59.063Z,135.00
2019-02-21T23:50:25.146Z,140.80
2019-02-21T23:52:51.013Z,133.93
2019-02-21T23:55:16.912Z,138.83
2019-02-21T23:57:42.763Z,131.60
